Time;durP1;ratioP1;P1;durP2;ratioP2;P2;SDS_P1;SDS_P2;PMS_P1;PMS_P2;Temp;Humidity;BMP_temperature;BMP_pressure;BME280_temperature;BME280_humidity;BME280_pressure;Samples;Min_cycle;Max_cycle;Signal;HPM_P1;HPM_P2
2022/06/22 00:00:31;;;;;;;;;;;;;;;;;;5018061;28;19913;-26
2022/06/22 00:02:57;;;;;;;;;;;;;;;;;;5017774;28;19913;-26
2022/06/22 00:05:23;;;;;;;;;;;;;;;;;;5018208;28;20325;-26
2022/06/22 00:07:49;;;;;;;;;;;;;;;;;;5017486;28;20379;-26
2022/06/22 00:10:15;;;;;;;;;;;;;;;;;;5016440;28;19921;-26
2022/06/22 00:12:41;;;;;;;;;;;;;;;;;;5017637;28;20363;-27
2022/06/22 00:15:07;;;;;;;;;;;;;;;;;;5017489;28;19909;-26
2022/06/22 00:17:33;;;;;;;;;;;;;;;;;;5017700;28;19914;-26
2022/06/22 00:19:59;;;;;;;;;;;;;;;;;;5017988;28;19956;-27
2022/06/22 00:22:26;;;;;;;;;;;;;;;;;;5017286;28;19913;-26
2022/06/22 00:24:52;;;;;;;;;;;;;;;;;;5017267;28;20328;-26
2022/06/22 00:27:17;;;;;;;;;;;;;;;;;;5017309;28;19914;-26
2022/06/22 00:29:43;;;;;;;;;;;;;;;;;;5017118;28;19975;-26
2022/06/22 00:32:09;;;;;;;;;;;;;;;;;;5017609;28;19910;-27
2022/06/22 00:34:35;;;;;;;;;;;;;;;;;;5017689;28;19995;-26
2022/06/22 00:37:02;;;;;;;;;;;;;;;;;;5017096;28;20011;-26
2022/06/22 00:39:27;;;;;;;;;;;;;;;;;;5017260;28;19961;-26
2022/06/22 00:41:53;;;;;;;;;;;;;;;;;;5017197;28;19909;-26
2022/06/22 00:44:19;;;;;;;;;;;;;;;;;;5017172;28;20256;-27
2022/06/22 00:46:45;;;;;;;;;;;;;;;;;;5016836;28;19910;-26
2022/06/22 00:49:11;;;;;;;;;;;;;;;;;;5016770;28;19921;-26
2022/06/22 00:51:38;;;;;;;;;;;;;;;;;;5017062;28;20399;-26
2022/06/22 00:54:04;;;;;;;;;;;;;;;;;;5016730;28;19913;-26
2022/06/22 00:56:29;;;;;;;;;;;;;;;;;;5017295;28;19975;-26
2022/06/22 00:58:55;;;;;;;;;;;;;;;;;;5016652;28;19909;-26
2022/06/22 01:01:21;;;;;;;;;;;;;;;;;;5016920;28;20367;-26
2022/06/22 01:03:47;;;;;;;;;;;;;;;;;;5016783;28;19914;-26
2022/06/22 01:06:14;;;;;;;;;;;;;;;;;;5016303;28;19924;-27
2022/06/22 01:08:40;;;;;;;;;;;;;;;;;;5016746;28;19932;-26
2022/06/22 01:11:06;;;;;;;;;;;;;;;;;;5016469;28;19914;-26
2022/06/22 01:13:32;;;;;;;;;;;;;;;;;;5016262;28;19953;-26
2022/06/22 01:15:58;;;;;;;;;;;;;;;;;;5016640;28;19957;-27
2022/06/22 01:18:24;;;;;;;;;;;;;;;;;;5016860;28;19913;-27
2022/06/22 01:20:50;;;;;;;;;;;;;;;;;;5016562;28;19921;-26
2022/06/22 01:23:16;;;;;;;;;;;;;;;;;;5015896;28;20364;-26
2022/06/22 01:25:42;;;;;;;;;;;;;;;;;;5016441;28;19924;-26
2022/06/22 01:28:08;;;;;;;;;;;;;;;;;;5016332;28;19913;-26
2022/06/22 01:30:35;;;;;;;;;;;;;;;;;;5016421;28;19910;-27
2022/06/22 01:33:01;;;;;;;;;;;;;;;;;;5016260;28;19924;-27
2022/06/22 01:35:27;;;;;;;;;;;;;;;;;;5016278;28;19915;-26
2022/06/22 01:37:53;;;;;;;;;;;;;;;;;;5016028;28;19922;-26
2022/06/22 01:40:19;;;;;;;;;;;;;;;;;;5015985;28;19916;-26
2022/06/22 01:42:45;;;;;;;;;;;;;;;;;;5015802;28;19913;-26
2022/06/22 01:45:11;;;;;;;;;;;;;;;;;;5015876;28;19920;-26
2022/06/22 01:47:37;;;;;;;;;;;;;;;;;;5016423;28;20349;-26
2022/06/22 01:50:03;;;;;;;;;;;;;;;;;;5015758;28;19948;-26
2022/06/22 01:52:29;;;;;;;;;;;;;;;;;;5015730;28;20363;-26
2022/06/22 01:54:56;;;;;;;;;;;;;;;;;;5015730;28;19917;-26
2022/06/22 01:57:22;;;;;;;;;;;;;;;;;;5016037;28;19952;-26
2022/06/22 01:59:48;;;;;;;;;;;;;;;;;;5015673;28;20353;-26
2022/06/22 02:02:14;;;;;;;;;;;;;;;;;;5015546;28;20303;-26
2022/06/22 02:04:39;;;;;;;;;;;;;;;;;;5016178;28;19963;-26
2022/06/22 02:09:50;;;;;;;;;;;;;;;;;;5015594;28;19925;-27
2022/06/22 02:12:19;;;;;;;;;;;;;;;;;;5015649;28;19914;-26
2022/06/22 02:14:45;;;;;;;;;;;;;;;;;;5015796;28;19910;-26
2022/06/22 02:17:11;;;;;;;;;;;;;;;;;;5015446;28;19918;-26
2022/06/22 02:19:37;;;;;;;;;;;;;;;;;;5015364;28;20077;-27
2022/06/22 02:22:03;;;;;;;;;;;;;;;;;;5015238;28;19933;-26
2022/06/22 02:24:29;;;;;;;;;;;;;;;;;;5015339;28;19910;-26
2022/06/22 02:26:55;;;;;;;;;;;;;;;;;;5015256;28;19913;-26
2022/06/22 02:29:21;;;;;;;;;;;;;;;;;;5015563;28;19924;-26
2022/06/22 02:31:47;;;;;;;;;;;;;;;;;;5015627;28;19972;-26
2022/06/22 02:34:13;;;;;;;;;;;;;;;;;;5016757;28;19917;-26
2022/06/22 02:36:39;;;;;;;;;;;;;;;;;;5019296;28;19920;-26
2022/06/22 02:39:05;;;;;;;;;;;;;;;;;;5019563;28;19909;-26
2022/06/22 02:44:34;;;;;;;;;;;;;;;;;;5019310;28;19920;-26
2022/06/22 02:47:00;;;;;;;;;;;;;;;;;;5019533;28;20364;-26
2022/06/22 02:49:26;;;;;;;;;;;;;;;;;;5019056;28;19989;-26
2022/06/22 02:51:52;;;;;;;;;;;;;;;;;;5019006;28;20260;-26
2022/06/22 02:54:18;;;;;;;;;;;;;;;;;;5018997;28;20004;-26
2022/06/22 02:56:44;;;;;;;;;;;;;;;;;;5019566;28;20324;-26
2022/06/22 02:59:10;;;;;;;;;;;;;;;;;;5019169;28;20253;-26
2022/06/22 03:01:36;;;;;;;;;;;;;;;;;;5018910;28;19917;-26
2022/06/22 03:04:02;;;;;;;;;;;;;;;;;;5018770;28;20359;-27
2022/06/22 03:06:28;;;;;;;;;;;;;;;;;;5018663;28;19913;-27
2022/06/22 03:08:54;;;;;;;;;;;;;;;;;;5018977;28;19921;-26
2022/06/22 03:11:20;;;;;;;;;;;;;;;;;;5018712;28;19917;-27
2022/06/22 03:13:46;;;;;;;;;;;;;;;;;;5018873;28;20252;-26
2022/06/22 03:16:12;;;;;;;;;;;;;;;;;;5019200;28;19957;-26
2022/06/22 03:18:38;;;;;;;;;;;;;;;;;;5019098;28;19948;-26
2022/06/22 03:21:04;;;;;;;;;;;;;;;;;;5018523;28;19941;-26
2022/06/22 03:23:30;;;;;;;;;;;;;;;;;;5018397;28;19913;-26
2022/06/22 03:25:56;;;;;;;;;;;;;;;;;;5018688;28;19909;-26
2022/06/22 03:28:22;;;;;;;;;;;;;;;;;;5018554;28;19975;-27
2022/06/22 03:30:48;;;;;;;;;;;;;;;;;;5018346;28;19917;-26
2022/06/22 03:33:14;;;;;;;;;;;;;;;;;;5018196;28;19914;-26
2022/06/22 03:35:40;;;;;;;;;;;;;;;;;;5017391;28;19916;-26
2022/06/22 03:38:06;;;;;;;;;;;;;;;;;;5018471;28;19913;-26
2022/06/22 03:40:32;;;;;;;;;;;;;;;;;;5018127;28;19983;-26
2022/06/22 03:42:58;;;;;;;;;;;;;;;;;;5018013;28;19975;-26
2022/06/22 03:45:24;;;;;;;;;;;;;;;;;;5017878;28;19913;-26
2022/06/22 03:47:50;;;;;;;;;;;;;;;;;;5017968;28;19913;-26
2022/06/22 03:50:16;;;;;;;;;;;;;;;;;;5017884;28;19924;-26
2022/06/22 03:52:42;;;;;;;;;;;;;;;;;;5017834;28;19929;-26
2022/06/22 03:55:08;;;;;;;;;;;;;;;;;;5018125;28;20320;-26
2022/06/22 03:57:34;;;;;;;;;;;;;;;;;;5018086;28;19914;-26
2022/06/22 04:00:00;;;;;;;;;;;;;;;;;;5018030;28;19910;-26
2022/06/22 04:02:26;;;;;;;;;;;;;;;;;;5017712;28;19936;-26
2022/06/22 04:04:52;;;;;;;;;;;;;;;;;;5018124;28;20325;-26
2022/06/22 04:07:18;;;;;;;;;;;;;;;;;;5017278;28;20011;-26
2022/06/22 04:09:44;;;;;;;;;;;;;;;;;;5017307;28;20059;-27
2022/06/22 04:12:10;;;;;;;;;;;;;;;;;;5017197;28;19925;-26
2022/06/22 04:14:36;;;;;;;;;;;;;;;;;;5017263;28;19914;-26
2022/06/22 04:17:02;;;;;;;;;;;;;;;;;;5017188;28;19913;-26
2022/06/22 04:19:28;;;;;;;;;;;;;;;;;;5017115;28;20367;-26
2022/06/22 04:21:54;;;;;;;;;;;;;;;;;;5017513;28;20004;-26
2022/06/22 04:24:20;;;;;;;;;;;;;;;;;;5018110;28;19936;-27
2022/06/22 04:26:46;;;;;;;;;;;;;;;;;;5016887;28;19913;-26
2022/06/22 04:29:12;;;;;;;;;;;;;;;;;;5016918;28;19914;-26
2022/06/22 04:31:38;;;;;;;;;;;;;;;;;;5017650;28;19980;-26
2022/06/22 04:34:04;;;;;;;;;;;;;;;;;;5017216;28;19913;-26
2022/06/22 04:36:30;;;;;;;;;;;;;;;;;;5017192;28;19909;-26
2022/06/22 04:38:56;;;;;;;;;;;;;;;;;;5016887;28;19924;-26
2022/06/22 04:41:22;;;;;;;;;;;;;;;;;;5017339;28;19921;-26
2022/06/22 04:43:48;;;;;;;;;;;;;;;;;;5017040;28;20233;-26
2022/06/22 04:46:14;;;;;;;;;;;;;;;;;;5017135;28;19924;-26
2022/06/22 04:48:40;;;;;;;;;;;;;;;;;;5016567;28;19918;-26
2022/06/22 04:51:06;;;;;;;;;;;;;;;;;;5016581;28;19920;-27
2022/06/22 04:53:32;;;;;;;;;;;;;;;;;;5016518;28;20074;-28
2022/06/22 04:55:58;;;;;;;;;;;;;;;;;;5016336;28;20308;-26
2022/06/22 04:58:24;;;;;;;;;;;;;;;;;;5016467;28;19913;-26
2022/06/22 05:00:52;;;;;;;;;;;;;;;;;;5016466;28;19914;-27
2022/06/22 05:03:17;;;;;;;;;;;;;;;;;;5016313;28;19913;-26
2022/06/22 05:05:44;;;;;;;;;;;;;;;;;;5016359;28;19909;-26
2022/06/22 05:08:10;;;;;;;;;;;;;;;;;;5016092;28;19917;-26
2022/06/22 05:10:37;;;;;;;;;;;;;;;;;;5016170;28;19944;-26
2022/06/22 05:13:03;;;;;;;;;;;;;;;;;;5016415;28;19917;-26
2022/06/22 05:15:29;;;;;;;;;;;;;;;;;;5016232;28;19910;-26
2022/06/22 05:17:55;;;;;;;;;;;;;;;;;;5016392;28;19913;-26
2022/06/22 05:20:21;;;;;;;;;;;;;;;;;;5016109;28;19909;-26
2022/06/22 05:22:47;;;;;;;;;;;;;;;;;;5015909;28;19925;-27
2022/06/22 05:25:13;;;;;;;;;;;;;;;;;;5015984;28;19913;-26
2022/06/22 05:27:39;;;;;;;;;;;;;;;;;;5015963;28;19925;-26
2022/06/22 05:30:08;;;;;;;;;;;;;;;;;;5015827;28;19913;-27
2022/06/22 05:32:34;;;;;;;;;;;;;;;;;;5015703;28;19914;-27
2022/06/22 05:35:00;;;;;;;;;;;;;;;;;;5015912;28;19997;-26
2022/06/22 05:37:26;;;;;;;;;;;;;;;;;;5016381;28;19921;-26
2022/06/22 05:39:52;;;;;;;;;;;;;;;;;;5016092;28;20341;-26
2022/06/22 05:42:18;;;;;;;;;;;;;;;;;;5015667;28;19914;-26
2022/06/22 05:44:44;;;;;;;;;;;;;;;;;;5015959;28;19921;-26
2022/06/22 05:47:10;;;;;;;;;;;;;;;;;;5015674;28;19909;-26
2022/06/22 05:49:36;;;;;;;;;;;;;;;;;;5015603;28;20363;-26
2022/06/22 05:52:02;;;;;;;;;;;;;;;;;;5015458;28;19917;-26
2022/06/22 05:54:28;;;;;;;;;;;;;;;;;;5015507;28;20353;-26
2022/06/22 05:56:54;;;;;;;;;;;;;;;;;;5015514;28;19948;-27
2022/06/22 05:59:21;;;;;;;;;;;;;;;;;;5015406;28;19925;-26
2022/06/22 06:01:47;;;;;;;;;;;;;;;;;;5015434;28;19975;-26
2022/06/22 06:04:13;;;;;;;;;;;;;;;;;;5015210;28;19976;-26
2022/06/22 06:06:39;;;;;;;;;;;;;;;;;;5015264;28;19918;-26
2022/06/22 06:09:05;;;;;;;;;;;;;;;;;;5014989;28;19928;-27
2022/06/22 06:11:31;;;;;;;;;;;;;;;;;;5015642;28;20342;-26
2022/06/22 06:13:59;;;;;;;;;;;;;;;;;;5015278;28;19924;-27
2022/06/22 06:16:25;;;;;;;;;;;;;;;;;;5015261;28;19917;-26
2022/06/22 06:18:51;;;;;;;;;;;;;;;;;;5015522;28;19991;-26
2022/06/22 06:21:17;;;;;;;;;;;;;;;;;;5015030;28;20304;-27
2022/06/22 06:23:43;;;;;;;;;;;;;;;;;;5014974;28;19922;-27
2022/06/22 06:28:53;;;;;;;;;;;;;;;;;;5015171;28;19928;-27
2022/06/22 06:31:19;;;;;;;;;;;;;;;;;;5015540;28;19913;-27
2022/06/22 06:33:45;;;;;;;;;;;;;;;;;;5015155;28;20359;-27
2022/06/22 06:36:11;;;;;;;;;;;;;;;;;;5015177;28;19997;-27
2022/06/22 06:38:37;;;;;;;;;;;;;;;;;;5015152;28;20256;-27
2022/06/22 06:41:03;;;;;;;;;;;;;;;;;;5015017;28;19988;-27
2022/06/22 06:43:29;;;;;;;;;;;;;;;;;;5014931;28;19914;-27
2022/06/22 06:45:55;;;;;;;;;;;;;;;;;;5015256;28;19910;-27
2022/06/22 06:48:21;;;;;;;;;;;;;;;;;;5014820;28;19955;-27
2022/06/22 06:50:47;;;;;;;;;;;;;;;;;;5014774;28;19921;-26
2022/06/22 06:53:13;;;;;;;;;;;;;;;;;;5015499;28;19924;-26
2022/06/22 06:55:39;;;;;;;;;;;;;;;;;;5015018;28;19914;-26
2022/06/22 06:58:06;;;;;;;;;;;;;;;;;;5015087;28;19920;-26
2022/06/22 07:00:32;;;;;;;;;;;;;;;;;;5014792;28;20349;-26
2022/06/22 07:02:58;;;;;;;;;;;;;;;;;;5015105;28;19909;-26
2022/06/22 07:05:24;;;;;;;;;;;;;;;;;;5015116;28;19968;-26
2022/06/22 07:07:50;;;;;;;;;;;;;;;;;;5014606;28;19996;-26
2022/06/22 07:10:18;;;;;;;;;;;;;;;;;;5014749;28;20016;-26
2022/06/22 07:12:44;;;;;;;;;;;;;;;;;;5014754;28;20012;-27
2022/06/22 07:15:10;;;;;;;;;;;;;;;;;;5014710;28;19976;-26
2022/06/22 07:17:36;;;;;;;;;;;;;;;;;;5014916;28;19914;-27
2022/06/22 07:20:04;;;;;;;;;;;;;;;;;;5016309;28;19910;-27
2022/06/22 07:22:31;;;;;;;;;;;;;;;;;;5018481;28;20230;-27
2022/06/22 07:24:57;;;;;;;;;;;;;;;;;;5018262;28;19920;-27
2022/06/22 07:27:23;;;;;;;;;;;;;;;;;;5018256;28;20261;-27
2022/06/22 07:29:49;;;;;;;;;;;;;;;;;;5018184;28;19917;-27
2022/06/22 07:32:15;;;;;;;;;;;;;;;;;;5018130;28;20352;-26
2022/06/22 07:34:41;;;;;;;;;;;;;;;;;;5018452;28;20337;-26
2022/06/22 07:37:07;;;;;;;;;;;;;;;;;;5018671;28;20229;-26
2022/06/22 07:39:33;;;;;;;;;;;;;;;;;;5018091;28;19977;-26
2022/06/22 07:41:59;;;;;;;;;;;;;;;;;;5018207;28;19913;-26
2022/06/22 07:44:25;;;;;;;;;;;;;;;;;;5018171;28;20236;-26
2022/06/22 07:46:51;;;;;;;;;;;;;;;;;;5018473;28;20008;-26
2022/06/22 07:49:17;;;;;;;;;;;;;;;;;;5018098;28;20066;-27
2022/06/22 07:51:43;;;;;;;;;;;;;;;;;;5018092;28;19929;-26
2022/06/22 07:54:09;;;;;;;;;;;;;;;;;;5017468;28;20008;-27
2022/06/22 07:56:36;;;;;;;;;;;;;;;;;;5017806;28;20222;-26
2022/06/22 07:59:03;;;;;;;;;;;;;;;;;;5017491;28;19924;-26
2022/06/22 08:01:29;;;;;;;;;;;;;;;;;;5018042;28;19910;-26
2022/06/22 08:03:55;;;;;;;;;;;;;;;;;;5017366;28;20392;-26
2022/06/22 08:06:21;;;;;;;;;;;;;;;;;;5017441;28;20246;-26
2022/06/22 08:08:47;;;;;;;;;;;;;;;;;;5017859;28;19929;-26
2022/06/22 08:11:13;;;;;;;;;;;;;;;;;;5017381;28;19917;-26
2022/06/22 08:13:40;;;;;;;;;;;;;;;;;;5017326;28;19936;-26
2022/06/22 08:16:06;;;;;;;;;;;;;;;;;;5017317;28;19921;-27
2022/06/22 08:18:32;;;;;;;;;;;;;;;;;;5017890;28;20233;-27
2022/06/22 08:20:58;;;;;;;;;;;;;;;;;;5017275;28;19917;-27
2022/06/22 08:23:24;;;;;;;;;;;;;;;;;;5017388;28;19913;-27
2022/06/22 08:25:50;;;;;;;;;;;;;;;;;;5017238;28;19909;-27
2022/06/22 08:28:16;;;;;;;;;;;;;;;;;;5017602;28;19964;-27
2022/06/22 08:30:43;;;;;;;;;;;;;;;;;;5016477;28;20002;-27
2022/06/22 08:33:09;;;;;;;;;;;;;;;;;;5016455;28;20004;-27
2022/06/22 08:35:35;;;;;;;;;;;;;;;;;;5017155;28;20392;-26
2022/06/22 08:38:01;;;;;;;;;;;;;;;;;;5016786;28;19937;-26
2022/06/22 08:40:27;;;;;;;;;;;;;;;;;;5016919;28;19909;-25
2022/06/22 08:42:53;;;;;;;;;;;;;;;;;;5016837;28;19927;-26
2022/06/22 08:45:19;;;;;;;;;;;;;;;;;;5016871;28;19910;-26
2022/06/22 08:47:45;;;;;;;;;;;;;;;;;;5016771;28;19913;-26
2022/06/22 08:50:11;;;;;;;;;;;;;;;;;;5016781;28;20307;-26
2022/06/22 08:52:37;;;;;;;;;;;;;;;;;;5016682;28;19926;-26
2022/06/22 08:55:03;;;;;;;;;;;;;;;;;;5016731;28;20140;-26
2022/06/22 08:57:29;;;;;;;;;;;;;;;;;;5016676;28;20068;-26
2022/06/22 08:59:55;;;;;;;;;;;;;;;;;;5016603;28;20001;-26
2022/06/22 09:02:21;;;;;;;;;;;;;;;;;;5016697;28;20332;-26
2022/06/22 09:04:47;;;;;;;;;;;;;;;;;;5016489;28;19966;-26
2022/06/22 09:07:13;;;;;;;;;;;;;;;;;;5016252;28;20003;-26
2022/06/22 09:09:41;;;;;;;;;;;;;;;;;;5016633;28;20309;-26
2022/06/22 09:12:08;;;;;;;;;;;;;;;;;;5016546;28;19913;-26
2022/06/22 09:14:34;;;;;;;;;;;;;;;;;;5016210;28;19914;-26
2022/06/22 09:17:00;;;;;;;;;;;;;;;;;;5016234;28;19921;-26
2022/06/22 09:19:26;;;;;;;;;;;;;;;;;;5016178;28;19910;-26
2022/06/22 09:21:52;;;;;;;;;;;;;;;;;;5016100;28;19961;-26
2022/06/22 09:24:18;;;;;;;;;;;;;;;;;;5016056;28;19921;-26
2022/06/22 09:26:44;;;;;;;;;;;;;;;;;;5015982;28;20004;-26
2022/06/22 09:29:10;;;;;;;;;;;;;;;;;;5015884;28;19917;-26
2022/06/22 09:31:36;;;;;;;;;;;;;;;;;;5015916;28;19972;-26
2022/06/22 09:34:02;;;;;;;;;;;;;;;;;;5016656;28;19917;-26
2022/06/22 09:36:28;;;;;;;;;;;;;;;;;;5015880;28;20244;-26
2022/06/22 09:38:54;;;;;;;;;;;;;;;;;;5016083;28;20248;-26
2022/06/22 09:41:20;;;;;;;;;;;;;;;;;;5016037;28;19910;-26
2022/06/22 09:43:46;;;;;;;;;;;;;;;;;;5015295;28;19914;-26
2022/06/22 09:46:12;;;;;;;;;;;;;;;;;;5015690;28;20329;-26
2022/06/22 09:48:38;;;;;;;;;;;;;;;;;;5015543;28;19913;-26
2022/06/22 09:51:04;;;;;;;;;;;;;;;;;;5015662;28;19959;-27
2022/06/22 09:53:30;;;;;;;;;;;;;;;;;;5015507;28;19935;-27
2022/06/22 09:58:40;;;;;;;;;;;;;;;;;;5015549;28;19932;-27
2022/06/22 10:01:06;;;;;;;;;;;;;;;;;;5016177;28;19972;-27
2022/06/22 10:03:32;;;;;;;;;;;;;;;;;;5015524;28;19921;-27
2022/06/22 10:05:59;;;;;;;;;;;;;;;;;;5016097;28;19957;-27
2022/06/22 10:08:25;;;;;;;;;;;;;;;;;;5015961;28;19909;-27
2022/06/22 10:10:51;;;;;;;;;;;;;;;;;;5015412;28;20004;-27
2022/06/22 10:13:17;;;;;;;;;;;;;;;;;;5015487;28;19913;-25
2022/06/22 10:15:43;;;;;;;;;;;;;;;;;;5015404;28;19913;-27
2022/06/22 10:18:09;;;;;;;;;;;;;;;;;;5015270;28;20332;-27
2022/06/22 10:20:35;;;;;;;;;;;;;;;;;;5015611;28;19909;-27
2022/06/22 10:23:01;;;;;;;;;;;;;;;;;;5015152;28;19913;-27
2022/06/22 10:25:27;;;;;;;;;;;;;;;;;;5015570;28;19967;-27
2022/06/22 10:27:53;;;;;;;;;;;;;;;;;;5015811;28;19921;-27
2022/06/22 10:30:19;;;;;;;;;;;;;;;;;;5015659;28;19921;-27
2022/06/22 10:32:46;;;;;;;;;;;;;;;;;;5015354;28;19992;-27
2022/06/22 10:35:11;;;;;;;;;;;;;;;;;;5015209;28;19913;-27
2022/06/22 10:37:37;;;;;;;;;;;;;;;;;;5015698;28;20257;-27
2022/06/22 10:40:04;;;;;;;;;;;;;;;;;;5015053;28;19925;-27
2022/06/22 10:45:14;;;;;;;;;;;;;;;;;;5015017;28;19925;-27
2022/06/22 10:47:43;;;;;;;;;;;;;;;;;;5014896;28;20000;-27
2022/06/22 10:50:09;;;;;;;;;;;;;;;;;;5014762;28;19922;-27
2022/06/22 10:52:35;;;;;;;;;;;;;;;;;;5014849;28;19940;-27
2022/06/22 10:55:01;;;;;;;;;;;;;;;;;;5016114;28;20004;-27
2022/06/22 10:57:27;;;;;;;;;;;;;;;;;;5018908;28;20008;-27
2022/06/22 10:59:53;;;;;;;;;;;;;;;;;;5018861;28;19921;-27
2022/06/22 11:02:20;;;;;;;;;;;;;;;;;;5019242;28;20333;-27
2022/06/22 11:04:46;;;;;;;;;;;;;;;;;;5018622;28;20337;-27
2022/06/22 11:07:12;;;;;;;;;;;;;;;;;;5018780;28;19928;-27
2022/06/22 11:09:38;;;;;;;;;;;;;;;;;;5018623;28;19922;-27
2022/06/22 11:12:04;;;;;;;;;;;;;;;;;;5018725;28;19937;-27
2022/06/22 11:14:30;;;;;;;;;;;;;;;;;;5019121;28;19914;-27
2022/06/22 11:16:56;;;;;;;;;;;;;;;;;;5018603;28;19936;-27
2022/06/22 11:19:22;;;;;;;;;;;;;;;;;;5019025;28;19924;-27
2022/06/22 11:21:48;;;;;;;;;;;;;;;;;;5017522;28;19909;-27
2022/06/22 11:24:14;;;;;;;;;;;;;;;;;;5018454;28;20217;-26
2022/06/22 11:32:09;;;;;;;;;;;;;;;;;;5018422;28;19925;-26
2022/06/22 11:34:35;;;;;;;;;;;;;;;;;;5018033;28;19909;-26
2022/06/22 11:37:01;;;;;;;;;;;;;;;;;;5018559;28;20261;-27
2022/06/22 11:39:27;;;;;;;;;;;;;;;;;;5018130;28;19913;-27
2022/06/22 11:41:54;;;;;;;;;;;;;;;;;;5017985;28;19917;-27
2022/06/22 11:44:20;;;;;;;;;;;;;;;;;;5018281;28;20225;-27
2022/06/22 11:46:47;;;;;;;;;;;;;;;;;;5018172;28;19914;-27
2022/06/22 11:49:13;;;;;;;;;;;;;;;;;;5017751;28;19953;-27
2022/06/22 11:51:39;;;;;;;;;;;;;;;;;;5017782;28;19917;-27
2022/06/22 11:54:05;;;;;;;;;;;;;;;;;;5017853;28;19948;-27
2022/06/22 11:56:31;;;;;;;;;;;;;;;;;;5017738;28;20380;-27
2022/06/22 11:58:59;;;;;;;;;;;;;;;;;;5017927;28;20249;-27
2022/06/22 12:01:25;;;;;;;;;;;;;;;;;;5017727;28;19910;-27
2022/06/22 12:03:51;;;;;;;;;;;;;;;;;;5017546;28;20309;-27
2022/06/22 12:06:17;;;;;;;;;;;;;;;;;;5017436;28;19913;-27
2022/06/22 12:08:43;;;;;;;;;;;;;;;;;;5017680;28;19929;-27
2022/06/22 12:11:09;;;;;;;;;;;;;;;;;;5017758;28;20000;-27
2022/06/22 12:13:35;;;;;;;;;;;;;;;;;;5017668;28;20005;-27
2022/06/22 12:16:01;;;;;;;;;;;;;;;;;;5017983;28;19936;-27
2022/06/22 12:18:27;;;;;;;;;;;;;;;;;;5017911;28;20252;-27
2022/06/22 12:20:53;;;;;;;;;;;;;;;;;;5017675;28;19924;-27
2022/06/22 12:23:19;;;;;;;;;;;;;;;;;;5017215;28;20008;-27
2022/06/22 12:25:49;;;;;;;;;;;;;;;;;;5017272;28;19960;-27
2022/06/22 12:28:15;;;;;;;;;;;;;;;;;;5017437;28;19947;-27
2022/06/22 12:30:41;;;;;;;;;;;;;;;;;;5017025;28;20379;-27
2022/06/22 12:33:07;;;;;;;;;;;;;;;;;;5016942;28;19955;-27
2022/06/22 12:35:36;;;;;;;;;;;;;;;;;;5017034;28;19909;-27
2022/06/22 12:38:02;;;;;;;;;;;;;;;;;;5016976;28;19945;-27
2022/06/22 12:40:29;;;;;;;;;;;;;;;;;;5017081;28;20260;-27
2022/06/22 12:42:55;;;;;;;;;;;;;;;;;;5016660;28;19920;-27
2022/06/22 12:45:21;;;;;;;;;;;;;;;;;;5016888;28;19914;-27
2022/06/22 12:47:47;;;;;;;;;;;;;;;;;;5017029;28;19914;-27
2022/06/22 12:50:13;;;;;;;;;;;;;;;;;;5016629;28;20406;-27
2022/06/22 12:52:39;;;;;;;;;;;;;;;;;;5017141;28;19926;-27
2022/06/22 12:55:05;;;;;;;;;;;;;;;;;;5016514;28;19964;-26
2022/06/22 12:57:31;;;;;;;;;;;;;;;;;;5016477;28;19913;-27
2022/06/22 12:59:57;;;;;;;;;;;;;;;;;;5016752;28;19909;-27
2022/06/22 13:02:25;;;;;;;;;;;;;;;;;;5016752;28;20348;-27
2022/06/22 13:04:51;;;;;;;;;;;;;;;;;;5016848;28;19916;-26
2022/06/22 13:07:18;;;;;;;;;;;;;;;;;;5016320;28;19921;-26
2022/06/22 13:09:43;;;;;;;;;;;;;;;;;;5016065;28;20031;-26
2022/06/22 13:12:10;;;;;;;;;;;;;;;;;;5016022;28;20308;-26
2022/06/22 13:14:36;;;;;;;;;;;;;;;;;;5016323;28;19914;-26
2022/06/22 13:17:02;;;;;;;;;;;;;;;;;;5015763;28;19909;-26
2022/06/22 13:19:28;;;;;;;;;;;;;;;;;;5016368;28;19913;-26
2022/06/22 13:21:55;;;;;;;;;;;;;;;;;;5015898;28;19925;-26
2022/06/22 13:24:21;;;;;;;;;;;;;;;;;;5016082;28;19909;-26
2022/06/22 13:26:47;;;;;;;;;;;;;;;;;;5015929;28;19940;-26
2022/06/22 13:29:13;;;;;;;;;;;;;;;;;;5015869;28;20033;-26
2022/06/22 13:31:39;;;;;;;;;;;;;;;;;;5016030;28;20308;-26
2022/06/22 13:34:05;;;;;;;;;;;;;;;;;;5015790;28;19924;-26
2022/06/22 13:36:31;;;;;;;;;;;;;;;;;;5015766;28;19909;-26
2022/06/22 13:38:57;;;;;;;;;;;;;;;;;;5015704;28;19914;-26
2022/06/22 13:41:24;;;;;;;;;;;;;;;;;;5016206;28;19914;-26
2022/06/22 13:43:50;;;;;;;;;;;;;;;;;;5015526;28;19920;-26
2022/06/22 13:46:16;;;;;;;;;;;;;;;;;;5015583;28;19918;-26
2022/06/22 13:48:46;;;;;;;;;;;;;;;;;;5015782;28;20340;-26
2022/06/22 13:53:45;;;;;;;;;;;;;;;;;;5015497;28;19924;-26
2022/06/22 13:56:11;;;;;;;;;;;;;;;;;;5015405;28;19909;-26
2022/06/22 13:58:37;;;;;;;;;;;;;;;;;;5015962;28;19924;-26
2022/06/22 14:01:03;;;;;;;;;;;;;;;;;;5015471;28;19917;-26
2022/06/22 14:03:29;;;;;;;;;;;;;;;;;;5015109;28;20371;-26
2022/06/22 14:05:55;;;;;;;;;;;;;;;;;;5015039;28;19967;-26
2022/06/22 14:08:21;;;;;;;;;;;;;;;;;;5015301;28;19917;-26
2022/06/22 14:10:47;;;;;;;;;;;;;;;;;;5015650;28;19981;-27
2022/06/22 14:13:13;;;;;;;;;;;;;;;;;;5015272;28;19917;-26
2022/06/22 14:15:39;;;;;;;;;;;;;;;;;;5015573;28;20300;-26
2022/06/22 14:18:05;;;;;;;;;;;;;;;;;;5015573;28;19918;-26
2022/06/22 14:20:31;;;;;;;;;;;;;;;;;;5015575;28;19913;-26
2022/06/22 14:22:57;;;;;;;;;;;;;;;;;;5015204;28;19920;-26
2022/06/22 14:25:23;;;;;;;;;;;;;;;;;;5015162;28;19921;-26
2022/06/22 14:27:49;;;;;;;;;;;;;;;;;;5015096;28;19914;-26
2022/06/22 14:30:15;;;;;;;;;;;;;;;;;;5014826;28;19967;-26
2022/06/22 14:32:41;;;;;;;;;;;;;;;;;;5015257;28;19914;-26
2022/06/22 14:35:07;;;;;;;;;;;;;;;;;;5015310;28;19917;-26
2022/06/22 14:37:33;;;;;;;;;;;;;;;;;;5015288;28;19918;-26
2022/06/22 14:39:59;;;;;;;;;;;;;;;;;;5014928;28;20335;-26
2022/06/22 14:42:25;;;;;;;;;;;;;;;;;;5015512;28;19909;-26
2022/06/22 14:44:51;;;;;;;;;;;;;;;;;;5015005;28;19913;-26
2022/06/22 14:47:18;;;;;;;;;;;;;;;;;;5015103;28;19909;-26
2022/06/22 14:49:44;;;;;;;;;;;;;;;;;;5014990;28;20005;-26
2022/06/22 14:52:10;;;;;;;;;;;;;;;;;;5014949;28;19972;-26
2022/06/22 14:54:37;;;;;;;;;;;;;;;;;;5014908;28;19917;-26
2022/06/22 14:57:03;;;;;;;;;;;;;;;;;;5015037;28;19918;-26
2022/06/22 14:59:29;;;;;;;;;;;;;;;;;;5014857;28;20276;-26
2022/06/22 15:01:55;;;;;;;;;;;;;;;;;;5014725;28;20016;-26
2022/06/22 15:04:22;;;;;;;;;;;;;;;;;;5014744;28;20375;-26
2022/06/22 15:06:48;;;;;;;;;;;;;;;;;;5014497;28;19917;-26
2022/06/22 15:09:14;;;;;;;;;;;;;;;;;;5014696;28;19925;-27
2022/06/22 15:14:24;;;;;;;;;;;;;;;;;;5015096;28;19966;-26
2022/06/22 15:16:50;;;;;;;;;;;;;;;;;;5015016;28;19921;-26
2022/06/22 15:19:16;;;;;;;;;;;;;;;;;;5014807;28;20265;-26
2022/06/22 15:21:44;;;;;;;;;;;;;;;;;;5014702;28;19924;-26
2022/06/22 15:24:10;;;;;;;;;;;;;;;;;;5014531;28;19909;-26
2022/06/22 15:26:36;;;;;;;;;;;;;;;;;;5014977;28;19945;-26
2022/06/22 15:29:02;;;;;;;;;;;;;;;;;;5014632;28;20447;-26
2022/06/22 15:31:28;;;;;;;;;;;;;;;;;;5014628;28;19913;-26
2022/06/22 15:33:54;;;;;;;;;;;;;;;;;;5014625;28;19910;-26
2022/06/22 15:36:20;;;;;;;;;;;;;;;;;;5014852;28;20253;-26
2022/06/22 15:38:46;;;;;;;;;;;;;;;;;;5014509;28;19924;-26
2022/06/22 15:41:12;;;;;;;;;;;;;;;;;;5015840;28;19921;-26
2022/06/22 15:43:41;;;;;;;;;;;;;;;;;;5017814;28;19920;-26
2022/06/22 15:46:07;;;;;;;;;;;;;;;;;;5018262;28;20075;-26
2022/06/22 15:48:33;;;;;;;;;;;;;;;;;;5017877;28;19917;-26
2022/06/22 15:50:59;;;;;;;;;;;;;;;;;;5017872;28;19932;-26
2022/06/22 15:53:25;;;;;;;;;;;;;;;;;;5017782;28;20340;-26
2022/06/22 15:55:51;;;;;;;;;;;;;;;;;;5017785;28;19918;-26
2022/06/22 15:58:17;;;;;;;;;;;;;;;;;;5016884;28;20307;-26
2022/06/22 16:00:43;;;;;;;;;;;;;;;;;;5017777;28;19955;-26
2022/06/22 16:03:09;;;;;;;;;;;;;;;;;;5017679;28;19914;-26
2022/06/22 16:05:35;;;;;;;;;;;;;;;;;;5017604;28;19920;-26
2022/06/22 16:08:02;;;;;;;;;;;;;;;;;;5017437;28;19918;-26
2022/06/22 16:10:28;;;;;;;;;;;;;;;;;;5017571;28;19921;-26
2022/06/22 16:15:38;;;;;;;;;;;;;;;;;;5017580;28;19921;-27
2022/06/22 16:18:04;;;;;;;;;;;;;;;;;;5017570;28;19914;-26
2022/06/22 16:20:30;;;;;;;;;;;;;;;;;;5017572;28;19910;-26
2022/06/22 16:22:56;;;;;;;;;;;;;;;;;;5017139;28;19913;-26
2022/06/22 16:25:22;;;;;;;;;;;;;;;;;;5017116;28;19916;-26
2022/06/22 16:27:48;;;;;;;;;;;;;;;;;;5017308;28;20218;-26
2022/06/22 16:30:14;;;;;;;;;;;;;;;;;;5017254;28;20008;-25
2022/06/22 16:32:40;;;;;;;;;;;;;;;;;;5017466;28;20000;-26
2022/06/22 16:35:06;;;;;;;;;;;;;;;;;;5017002;28;19973;-26
2022/06/22 16:37:32;;;;;;;;;;;;;;;;;;5017362;28;19913;-26
2022/06/22 16:39:58;;;;;;;;;;;;;;;;;;5017513;28;19914;-26
2022/06/22 16:42:24;;;;;;;;;;;;;;;;;;5016823;28;19917;-26
2022/06/22 16:44:50;;;;;;;;;;;;;;;;;;5016872;28;19914;-26
2022/06/22 16:47:16;;;;;;;;;;;;;;;;;;5017078;28;20288;-26
2022/06/22 16:49:42;;;;;;;;;;;;;;;;;;5017248;28;19913;-26
2022/06/22 16:52:08;;;;;;;;;;;;;;;;;;5016016;28;20249;-26
2022/06/22 16:54:34;;;;;;;;;;;;;;;;;;5016535;28;20004;-26
2022/06/22 16:57:00;;;;;;;;;;;;;;;;;;5016907;28;19909;-26
2022/06/22 16:59:26;;;;;;;;;;;;;;;;;;5016561;28;19913;-26
2022/06/22 17:01:52;;;;;;;;;;;;;;;;;;5016419;28;20325;-27
2022/06/22 17:04:18;;;;;;;;;;;;;;;;;;5016701;28;19915;-26